Grenadines III — CRA5628 — position and weather

sailwx.info

Track history (hours):
 
Tides and Currents Weather Stations Pressure Air Temp Water Temp Dewpoint Dewpoint Depression Visibility Wind Speed Wind Dir Waves Ship Positions

Grenadines III

Last reported at 2015-Jul-06 19:15 UTC. Time now 2015-Jul-07 04:37 UTC.
Position N 39°29' E 002°28'.

Type: Pilot. MMSI: 225910870.

Date/timePositionNaut miles runAvg speedWind from/ knotsBaromVisibWave heightAir tempDewpointWater temp
2015-Jul-06 19:15N 39°29' E 002°28'4 0.6
2015-Jul-06 13:31N 39°32' E 002°25'4 0.2
2015-Jul-05 19:11N 39°29' E 002°28'2 2.4
2015-Jul-05 18:33N 39°30' E 002°26'1010.0
2015-Jul-05 17:33N 39°33' E 002°38'1 1.1
2015-Jul-05 16:31N 39°34' E 002°38'0 0.0
2015-Jul-05 15:31N 39°34' E 002°38'0 0.0
2015-Jul-05 14:31N 39°34' E 002°38'0 0.0
2015-Jul-05 13:31N 39°34' E 002°38'0 0.0
2015-Jul-05 12:31N 39°34' E 002°38'0 0.0
2015-Jul-05 11:31N 39°34' E 002°38'0 0.0
2015-Jul-05 10:31N 39°34' E 002°38'0 0.0
2015-Jul-05 09:31N 39°34' E 002°38'0 0.0
2015-Jul-05 08:31N 39°34' E 002°38'0 0.0
2015-Jul-05 07:31N 39°34' E 002°38'0 0.0
2015-Jul-05 06:31N 39°34' E 002°38'0 0.0
2015-Jul-05 05:31N 39°34' E 002°38'0 0.0
2015-Jul-05 04:31N 39°34' E 002°38'0 0.0
2015-Jul-05 03:31N 39°34' E 002°38'0 0.0
2015-Jul-05 02:31N 39°34' E 002°38'0 0.0
2015-Jul-05 01:31N 39°34' E 002°38'0 0.0
2015-Jul-05 00:31N 39°34' E 002°38'0 0.0
2015-Jul-04 23:31N 39°34' E 002°38'0 0.0
2015-Jul-04 22:31N 39°34' E 002°38'0 0.0
2015-Jul-04 21:31N 39°34' E 002°38'0 0.0
2015-Jul-04 20:31N 39°34' E 002°38'0 0.0
2015-Jul-04 19:31N 39°34' E 002°38'0 0.0
2015-Jul-04 18:31N 39°34' E 002°38'0 0.0
2015-Jul-04 17:31N 39°34' E 002°38'0 0.0
2015-Jul-04 16:31N 39°34' E 002°38'0 0.0
2015-Jul-04 15:31N 39°34' E 002°38'0 0.0
2015-Jul-04 14:31N 39°34' E 002°38'0 0.0
2015-Jul-04 13:31N 39°34' E 002°38'0 0.0
2015-Jul-04 12:31N 39°34' E 002°38'0 0.0
2015-Jul-04 11:31N 39°34' E 002°38'0 0.0
2015-Jul-04 10:31N 39°34' E 002°38'0 0.0
2015-Jul-04 09:31N 39°34' E 002°38'0 0.0
2015-Jul-04 08:31N 39°34' E 002°38'0 0.0
2015-Jul-04 07:31N 39°34' E 002°38'0 0.0
2015-Jul-04 06:31N 39°34' E 002°38'0 0.0
2015-Jul-04 04:31N 39°34' E 002°38'0 0.0
2015-Jul-04 03:31N 39°34' E 002°38'0 0.0
2015-Jul-04 02:31N 39°34' E 002°38'0 0.0
2015-Jul-04 01:31N 39°34' E 002°38'0 0.0
2015-Jul-04 00:31N 39°34' E 002°38'0 0.0
2015-Jul-03 23:31N 39°34' E 002°38'0 0.0
2015-Jul-03 22:31N 39°34' E 002°38'0 0.0
2015-Jul-03 21:31N 39°34' E 002°38'0 0.0
2015-Jul-03 20:31N 39°34' E 002°38'0 0.0
2015-Jul-03 19:31N 39°34' E 002°38'0 0.0
2015-Jul-03 18:31N 39°34' E 002°38'0 0.0
2015-Jul-03 17:31N 39°34' E 002°38'0 0.0
2015-Jul-03 16:31N 39°34' E 002°38'0 0.0
2015-Jul-03 15:31N 39°34' E 002°38'0 0.0
2015-Jul-03 14:31N 39°34' E 002°38'0 0.0
2015-Jul-03 13:31N 39°34' E 002°38'0 0.0
2015-Jul-03 12:31N 39°34' E 002°38'0 0.0
2015-Jul-03 11:31N 39°34' E 002°38'0 0.0
2015-Jul-03 10:31N 39°34' E 002°38'0 0.0
2015-Jul-03 09:31N 39°34' E 002°38'1 0.9
2015-Jul-03 08:31N 39°33' E 002°39'2 1.9
2015-Jul-03 07:33N 39°32' E 002°38'9 9.2
2015-Jul-03 06:32N 39°27' E 002°28'13 6.4
2015-Jul-03 04:32N 39°38' E 002°20'10 8.4
2015-Jul-03 03:19N 39°44' E 002°30'7 8.8
2015-Jul-03 02:33N 39°48' E 002°37'9 8.6
2015-Jul-03 01:33N 39°54' E 002°46'8 8.2
2015-Jul-03 00:33N 39°59' E 002°54'7 7.2
2015-Jul-02 23:34N 40°06' E 002°58'8 7.5
2015-Jul-02 22:34N 40°13' E 002°57'7 6.6
2015-Jul-02 21:33N 40°20' E 002°59'7 7.2
2015-Jul-02 20:33N 40°26' E 003°05'7 7.1
2015-Jul-02 19:33N 40°31' E 003°11'7 7.2
2015-Jul-02 18:33N 40°37' E 003°16'9 7.3
2015-Jul-02 17:21N 40°44' E 003°23'7 7.3
2015-Jul-02 16:24N 40°50' E 003°28'10 7.7
2015-Jul-02 15:07N 40°58' E 003°36'5 8.1
2015-Jul-02 14:27N 41°02' E 003°40'7 8.0
2015-Jul-02 13:32N 41°08' E 003°46'8 8.0
2015-Jul-02 12:33N 41°14' E 003°52'8 8.0
2015-Jul-02 11:32N 41°21' E 003°59'9 7.8
2015-Jul-02 10:24N 41°28' E 004°06'7 7.7
2015-Jul-02 09:33N 41°33' E 004°11'8 7.7
2015-Jul-02 08:34N 41°39' E 004°17'8 7.6
2015-Jul-02 07:33N 41°45' E 004°23'8 7.6
2015-Jul-02 06:33N 41°51' E 004°29'8 7.4
2015-Jul-02 05:33N 41°57' E 004°35'7 7.5
2015-Jul-02 04:33N 42°03' E 004°41'8 7.6
2015-Jul-02 03:33N 42°09' E 004°47'8 7.6
2015-Jul-02 02:33N 42°16' E 004°53'7 7.3
2015-Jul-02 01:33N 42°22' E 004°58'7 6.8
2015-Jul-02 00:33N 42°27' E 005°05'8 7.9
2015-Jul-01 23:33N 42°33' E 005°11'8 7.8
2015-Jul-01 22:33N 42°39' E 005°17'8 8.1
2015-Jul-01 21:32N 42°46' E 005°24'8 8.2
2015-Jul-01 20:33N 42°53' E 005°30'8 8.3
2015-Jul-01 19:33N 42°59' E 005°37'8 8.0
2015-Jul-01 18:34N 43°06' E 005°44'  
Track history (hours):
 
Tides and Currents Weather Stations Pressure Air Temp Water Temp Dewpoint Dewpoint Depression Visibility Wind Speed Wind Dir Waves Ship Positions

Grenadines III

Last reported at 2015-Jul-06 19:15 UTC. Time now 2015-Jul-07 04:37 UTC.
Position N 39°29' E 002°28'.

Type: Pilot. MMSI: 225910870.

Date/timePositionNaut miles runAvg speedWind from/ knotsBaromVisibWave heightAir tempDewpointWater temp
2015-Jul-06 19:15N 39°29' E 002°28'4 0.6
2015-Jul-06 13:31N 39°32' E 002°25'4 0.2
2015-Jul-05 19:11N 39°29' E 002°28'2 2.4
2015-Jul-05 18:33N 39°30' E 002°26'1010.0
2015-Jul-05 17:33N 39°33' E 002°38'1 1.1
2015-Jul-05 16:31N 39°34' E 002°38'0 0.0
2015-Jul-05 15:31N 39°34' E 002°38'0 0.0
2015-Jul-05 14:31N 39°34' E 002°38'0 0.0
2015-Jul-05 13:31N 39°34' E 002°38'0 0.0
2015-Jul-05 12:31N 39°34' E 002°38'0 0.0
2015-Jul-05 11:31N 39°34' E 002°38'0 0.0
2015-Jul-05 10:31N 39°34' E 002°38'0 0.0
2015-Jul-05 09:31N 39°34' E 002°38'0 0.0
2015-Jul-05 08:31N 39°34' E 002°38'0 0.0
2015-Jul-05 07:31N 39°34' E 002°38'0 0.0
2015-Jul-05 06:31N 39°34' E 002°38'0 0.0
2015-Jul-05 05:31N 39°34' E 002°38'0 0.0
2015-Jul-05 04:31N 39°34' E 002°38'0 0.0
2015-Jul-05 03:31N 39°34' E 002°38'0 0.0
2015-Jul-05 02:31N 39°34' E 002°38'0 0.0
2015-Jul-05 01:31N 39°34' E 002°38'0 0.0
2015-Jul-05 00:31N 39°34' E 002°38'0 0.0
2015-Jul-04 23:31N 39°34' E 002°38'0 0.0
2015-Jul-04 22:31N 39°34' E 002°38'0 0.0
2015-Jul-04 21:31N 39°34' E 002°38'0 0.0
2015-Jul-04 20:31N 39°34' E 002°38'0 0.0
2015-Jul-04 19:31N 39°34' E 002°38'0 0.0
2015-Jul-04 18:31N 39°34' E 002°38'0 0.0
2015-Jul-04 17:31N 39°34' E 002°38'0 0.0
2015-Jul-04 16:31N 39°34' E 002°38'0 0.0
2015-Jul-04 15:31N 39°34' E 002°38'0 0.0
2015-Jul-04 14:31N 39°34' E 002°38'0 0.0
2015-Jul-04 13:31N 39°34' E 002°38'0 0.0
2015-Jul-04 12:31N 39°34' E 002°38'0 0.0
2015-Jul-04 11:31N 39°34' E 002°38'0 0.0
2015-Jul-04 10:31N 39°34' E 002°38'0 0.0
2015-Jul-04 09:31N 39°34' E 002°38'0 0.0
2015-Jul-04 08:31N 39°34' E 002°38'0 0.0
2015-Jul-04 07:31N 39°34' E 002°38'0 0.0
2015-Jul-04 06:31N 39°34' E 002°38'0 0.0
2015-Jul-04 04:31N 39°34' E 002°38'0 0.0
2015-Jul-04 03:31N 39°34' E 002°38'0 0.0
2015-Jul-04 02:31N 39°34' E 002°38'0 0.0
2015-Jul-04 01:31N 39°34' E 002°38'0 0.0
2015-Jul-04 00:31N 39°34' E 002°38'0 0.0
2015-Jul-03 23:31N 39°34' E 002°38'0 0.0
2015-Jul-03 22:31N 39°34' E 002°38'0 0.0
2015-Jul-03 21:31N 39°34' E 002°38'0 0.0
2015-Jul-03 20:31N 39°34' E 002°38'0 0.0
2015-Jul-03 19:31N 39°34' E 002°38'0 0.0
2015-Jul-03 18:31N 39°34' E 002°38'0 0.0
2015-Jul-03 17:31N 39°34' E 002°38'0 0.0
2015-Jul-03 16:31N 39°34' E 002°38'0 0.0
2015-Jul-03 15:31N 39°34' E 002°38'0 0.0
2015-Jul-03 14:31N 39°34' E 002°38'0 0.0
2015-Jul-03 13:31N 39°34' E 002°38'0 0.0
2015-Jul-03 12:31N 39°34' E 002°38'0 0.0
2015-Jul-03 11:31N 39°34' E 002°38'0 0.0
2015-Jul-03 10:31N 39°34' E 002°38'0 0.0
2015-Jul-03 09:31N 39°34' E 002°38'1 0.9
2015-Jul-03 08:31N 39°33' E 002°39'2 1.9
2015-Jul-03 07:33N 39°32' E 002°38'9 9.2
2015-Jul-03 06:32N 39°27' E 002°28'13 6.4
2015-Jul-03 04:32N 39°38' E 002°20'10 8.4
2015-Jul-03 03:19N 39°44' E 002°30'7 8.8
2015-Jul-03 02:33N 39°48' E 002°37'9 8.6
2015-Jul-03 01:33N 39°54' E 002°46'8 8.2
2015-Jul-03 00:33N 39°59' E 002°54'7 7.2
2015-Jul-02 23:34N 40°06' E 002°58'8 7.5
2015-Jul-02 22:34N 40°13' E 002°57'7 6.6
2015-Jul-02 21:33N 40°20' E 002°59'7 7.2
2015-Jul-02 20:33N 40°26' E 003°05'7 7.1
2015-Jul-02 19:33N 40°31' E 003°11'7 7.2
2015-Jul-02 18:33N 40°37' E 003°16'9 7.3
2015-Jul-02 17:21N 40°44' E 003°23'7 7.3
2015-Jul-02 16:24N 40°50' E 003°28'10 7.7
2015-Jul-02 15:07N 40°58' E 003°36'5 8.1
2015-Jul-02 14:27N 41°02' E 003°40'7 8.0
2015-Jul-02 13:32N 41°08' E 003°46'8 8.0
2015-Jul-02 12:33N 41°14' E 003°52'8 8.0
2015-Jul-02 11:32N 41°21' E 003°59'9 7.8
2015-Jul-02 10:24N 41°28' E 004°06'7 7.7
2015-Jul-02 09:33N 41°33' E 004°11'8 7.7
2015-Jul-02 08:34N 41°39' E 004°17'8 7.6
2015-Jul-02 07:33N 41°45' E 004°23'8 7.6
2015-Jul-02 06:33N 41°51' E 004°29'8 7.4
2015-Jul-02 05:33N 41°57' E 004°35'7 7.5
2015-Jul-02 04:33N 42°03' E 004°41'8 7.6
2015-Jul-02 03:33N 42°09' E 004°47'8 7.6
2015-Jul-02 02:33N 42°16' E 004°53'7 7.3
2015-Jul-02 01:33N 42°22' E 004°58'7 6.8
2015-Jul-02 00:33N 42°27' E 005°05'8 7.9
2015-Jul-01 23:33N 42°33' E 005°11'8 7.8
2015-Jul-01 22:33N 42°39' E 005°17'8 8.1
2015-Jul-01 21:32N 42°46' E 005°24'8 8.2
2015-Jul-01 20:33N 42°53' E 005°30'8 8.3
2015-Jul-01 19:33N 42°59' E 005°37'8 8.0
2015-Jul-01 18:34N 43°06' E 005°44'  

Dump ship's entire track history